Главная страница
METAR-TAF:

METAR-TAF

Аэропорты :

Тулиара, Мадагаскар

широта: 23-23S, долгота: 043-44E, высота над уровнем моря: 8 м

METAR: отсутствует

Время: 14:21 (11:21 UTC)

Прогноз

Эта сводка был подготовлена 6 часа и 21 минут назад, в 05:00 UTC
Прогноз действительный с 23-го 06 UTC до 24-го 06 UTC
Ветер 8 Узел от юго-восточный
Видимость 10 км и более
Отдельные облака на высоте 2000 фута
изменения
С 23-го 08 UTC до 23-го 11 UTC
Ветер 12 Узел от западный-юго-западный
Отдельные облака на высоте 2000 фута, Кучево-дождевые.
изменения
С 23-го 16 UTC до 23-го 19 UTC
Ветер 7 Узел от восточно-юго-восточный
Отдельные облака на высоте 2000 фута

TAF: FMST 230500Z 2306/2406 14008KT 9999 SCT020 BECMG 2308/2311 24012KT SCT020CB BECMG 2316/2319 12007KT SCT020

Метеонаблюдения и прогнозы для более 4000 аэропортов (сводки METAR и TAF).

Имеющиеся станции представлены на карте желтыми и красными точками.

Чтобы увидеть название станции, наведите на нее мышь.

Затем щелкните, чтобы увидеть метеонаблюдения и метеопрогнозы.

Управление картой: чтобы увеличить масштаб, щелкните зеленые кнопки с черным крестиком; чтобы уменьшить масштаб, щелкните зеленую кнопку с тире; для просмотра соседних карт щелкайте зеленые стрелки.


METAR-TAF: